createdAt,value
2023-02-25T00:02:03.084Z,83.87
2023-02-25T00:04:34.852Z,83.85
2023-02-25T00:07:05.609Z,83.86
2023-02-25T00:09:36.066Z,83.90
2023-02-25T00:12:08.342Z,84.09
2023-02-25T00:14:38.719Z,84.41
2023-02-25T00:17:09.194Z,84.80
2023-02-25T00:19:40.179Z,85.06
2023-02-25T00:22:10.659Z,85.12
2023-02-25T00:24:41.092Z,85.11
2023-02-25T00:27:11.839Z,85.06
2023-02-25T00:29:42.370Z,84.81
2023-02-25T00:32:12.917Z,84.59
2023-02-25T00:34:43.650Z,84.44
2023-02-25T00:37:14.226Z,84.25
2023-02-25T00:39:44.667Z,84.10
2023-02-25T00:42:16.467Z,83.99
2023-02-25T00:44:47.967Z,83.88
2023-02-25T00:47:19.728Z,83.92
2023-02-25T00:49:52.209Z,83.95
2023-02-25T00:52:22.615Z,83.99
2023-02-25T00:54:53.763Z,83.98
2023-02-25T00:57:24.232Z,84.03
2023-02-25T00:59:55.158Z,84.17
2023-02-25T01:02:25.751Z,84.29
2023-02-25T01:04:56.303Z,84.43
2023-02-25T01:07:26.939Z,84.45
2023-02-25T01:09:58.741Z,84.40
2023-02-25T01:12:29.508Z,84.54
2023-02-25T01:15:00.091Z,84.48
2023-02-25T01:17:30.537Z,84.36
2023-02-25T01:20:00.899Z,84.36
2023-02-25T01:22:31.331Z,84.30
2023-02-25T01:25:02.706Z,84.32
2023-02-25T01:27:33.072Z,84.26
2023-02-25T01:30:03.810Z,84.22
2023-02-25T01:32:34.335Z,84.10
2023-02-25T01:35:06.498Z,84.17
2023-02-25T01:37:36.888Z,84.15
2023-02-25T01:40:10.978Z,83.97
2023-02-25T01:42:41.566Z,83.87
2023-02-25T01:45:28.509Z,83.77
2023-02-25T01:48:02.393Z,83.72
2023-02-25T01:50:37.169Z,83.90
2023-02-25T01:53:09.752Z,83.76
2023-02-25T01:55:39.051Z,83.54
2023-02-25T01:58:10.611Z,83.44
2023-02-25T02:00:43.100Z,83.23
2023-02-25T02:03:16.825Z,83.15
2023-02-25T02:05:57.047Z,83.12
2023-02-25T02:08:27.998Z,83.08
2023-02-25T02:10:58.926Z,83.05
2023-02-25T02:13:29.512Z,83.22
2023-02-25T02:16:19.166Z,83.09
2023-02-25T02:18:53.074Z,82.98
2023-02-25T02:21:45.608Z,82.79
2023-02-25T02:24:39.994Z,82.61
2023-02-25T02:27:12.641Z,82.30
2023-02-25T02:30:11.579Z,81.93
2023-02-25T02:32:47.332Z,81.95
2023-02-25T02:35:23.872Z,81.86
2023-02-25T02:38:04.385Z,81.79
2023-02-25T02:40:47.765Z,81.90
2023-02-25T02:43:29.098Z,81.96
2023-02-25T02:46:02.700Z,81.87
2023-02-25T02:48:37.817Z,82.02
2023-02-25T02:51:11.925Z,81.87
2023-02-25T02:53:47.818Z,82.05
2023-02-25T02:56:19.811Z,82.25
2023-02-25T02:58:53.865Z,82.27
2023-02-25T03:01:28.149Z,82.00
2023-02-25T03:04:03.287Z,81.99
2023-02-25T03:06:36.476Z,81.80
2023-02-25T03:09:09.064Z,81.60
2023-02-25T03:11:39.531Z,81.39
2023-02-25T03:14:11.824Z,81.57
2023-02-25T03:16:45.461Z,81.56
2023-02-25T03:19:18.912Z,81.56
2023-02-25T03:21:54.935Z,81.51
2023-02-25T03:24:28.976Z,81.63
2023-02-25T03:26:59.403Z,81.64
2023-02-25T03:29:31.210Z,81.76
2023-02-25T03:32:07.939Z,81.91
2023-02-25T03:34:40.692Z,81.91
2023-02-25T03:37:15.665Z,82.03
2023-02-25T03:39:49.375Z,82.05
2023-02-25T03:42:24.001Z,82.12
2023-02-25T03:44:56.459Z,82.15
2023-02-25T03:47:28.774Z,82.09
2023-02-25T03:50:03.735Z,82.02
2023-02-25T03:52:34.715Z,81.75
2023-02-25T03:55:09.680Z,81.74
2023-02-25T03:57:42.327Z,81.82
2023-02-25T04:00:22.781Z,81.98
2023-02-25T04:02:53.766Z,81.78
2023-02-25T04:05:27.672Z,81.51
2023-02-25T04:07:58.601Z,81.36
2023-02-25T04:10:33.391Z,81.08
2023-02-25T04:13:05.902Z,81.14
2023-02-25T04:22:44.718Z,80.84
2023-02-25T04:25:15.162Z,80.78
2023-02-25T04:27:46.068Z,80.81
2023-02-25T04:30:17.864Z,80.70
2023-02-25T04:32:48.545Z,80.98
2023-02-25T04:35:19.460Z,80.98
2023-02-25T04:37:49.847Z,80.80
2023-02-25T04:40:22.118Z,80.88
2023-02-25T04:42:52.698Z,80.85
2023-02-25T04:45:27.130Z,81.04
2023-02-25T04:47:58.843Z,81.07
2023-02-25T04:50:29.303Z,81.22
2023-02-25T04:53:02.887Z,81.19
2023-02-25T04:55:33.270Z,81.11
2023-02-25T04:58:04.111Z,81.25
2023-02-25T05:00:34.592Z,81.33
2023-02-25T05:03:05.052Z,81.45
2023-02-25T05:05:35.363Z,81.44
2023-02-25T05:08:05.810Z,81.23
2023-02-25T05:10:36.189Z,81.15
2023-02-25T05:13:06.864Z,81.17
2023-02-25T05:15:37.239Z,81.28
2023-02-25T05:18:08.000Z,81.43
2023-02-25T05:20:42.389Z,81.38
2023-02-25T05:23:13.613Z,81.20
2023-02-25T05:25:44.037Z,81.14
2023-02-25T05:28:14.411Z,81.29
2023-02-25T05:30:44.829Z,81.08
2023-02-25T05:33:15.357Z,81.04
2023-02-25T05:35:45.812Z,80.87
2023-02-25T05:38:16.292Z,80.68
2023-02-25T05:40:46.638Z,80.59
2023-02-25T05:43:17.174Z,80.60
2023-02-25T05:45:47.516Z,80.71
2023-02-25T05:48:17.826Z,80.63
2023-02-25T05:50:50.437Z,80.68
2023-02-25T05:53:21.162Z,80.62
2023-02-25T05:55:51.508Z,80.67
2023-02-25T05:58:21.909Z,80.87
2023-02-25T06:00:53.900Z,80.94
2023-02-25T06:03:24.279Z,81.09
2023-02-25T06:05:54.696Z,81.10
2023-02-25T06:08:25.162Z,81.05
2023-02-25T06:10:55.504Z,80.95
2023-02-25T06:13:25.899Z,80.89
2023-02-25T06:15:56.313Z,80.80
2023-02-25T06:18:26.777Z,80.93
2023-02-25T06:20:57.130Z,80.84
2023-02-25T06:23:27.501Z,80.75
2023-02-25T06:26:00.116Z,80.58
2023-02-25T06:28:30.739Z,80.45
2023-02-25T06:31:01.258Z,80.53
2023-02-25T06:33:33.128Z,80.65
2023-02-25T06:36:04.980Z,80.75
2023-02-25T06:38:35.714Z,80.89
2023-02-25T06:41:09.199Z,80.79
2023-02-25T06:43:40.442Z,80.76
2023-02-25T06:46:13.763Z,80.70
2023-02-25T06:48:44.464Z,80.76
2023-02-25T06:51:14.973Z,80.83
2023-02-25T06:53:47.397Z,80.69
2023-02-25T06:56:20.317Z,80.67
2023-02-25T06:58:52.575Z,80.53
2023-02-25T07:01:23.109Z,80.52
2023-02-25T07:03:53.832Z,80.69
2023-02-25T07:06:24.483Z,80.66
2023-02-25T07:08:55.028Z,80.64
2023-02-25T07:11:34.467Z,80.27
2023-02-25T07:14:05.765Z,80.06
2023-02-25T07:16:36.337Z,79.88
2023-02-25T07:19:06.662Z,79.63
2023-02-25T07:21:38.227Z,79.71
2023-02-25T07:24:09.690Z,79.77
2023-02-25T07:26:40.523Z,79.34
2023-02-25T07:29:11.305Z,79.15
2023-02-25T07:31:41.994Z,78.73
2023-02-25T07:34:12.804Z,77.85
2023-02-25T07:36:43.619Z,75.62
2023-02-25T07:39:14.277Z,75.80
2023-02-25T07:41:44.752Z,74.81
2023-02-25T07:44:15.748Z,72.98
2023-02-25T07:46:46.356Z,71.92
2023-02-25T07:49:16.779Z,71.79
2023-02-25T07:51:47.284Z,70.86
2023-02-25T07:54:21.219Z,69.02
2023-02-25T07:56:54.866Z,68.23
2023-02-25T07:59:25.534Z,65.83
2023-02-25T08:01:55.914Z,64.11
2023-02-25T08:04:26.344Z,64.07
2023-02-25T08:06:56.771Z,62.91
2023-02-25T08:09:27.200Z,62.76
2023-02-25T08:11:58.048Z,61.68
2023-02-25T08:14:28.400Z,61.38
2023-02-25T08:17:01.824Z,60.70
2023-02-25T08:19:32.208Z,59.88
2023-02-25T08:22:02.519Z,58.87
2023-02-25T08:24:33.005Z,58.97
2023-02-25T08:27:03.413Z,57.65
2023-02-25T08:29:34.096Z,56.96
2023-02-25T08:32:04.629Z,56.19
2023-02-25T08:34:35.946Z,56.42
2023-02-25T08:37:06.318Z,55.83
2023-02-25T08:39:36.819Z,56.10
2023-02-25T08:42:07.798Z,55.77
2023-02-25T08:44:38.166Z,54.82
2023-02-25T08:47:08.670Z,55.04
2023-02-25T08:49:40.104Z,53.88
2023-02-25T08:52:11.956Z,53.87
2023-02-25T08:54:42.457Z,54.27
2023-02-25T08:57:12.828Z,53.73
2023-02-25T08:59:43.404Z,54.05
2023-02-25T09:02:17.078Z,52.63
2023-02-25T09:04:47.426Z,51.24
2023-02-25T09:07:17.936Z,51.45
2023-02-25T09:09:48.431Z,52.07
2023-02-25T09:12:24.248Z,51.16
2023-02-25T09:14:55.054Z,49.21
2023-02-25T09:17:25.370Z,49.26
2023-02-25T09:19:55.772Z,48.65
2023-02-25T09:22:26.429Z,48.79
2023-02-25T09:24:57.167Z,47.77
2023-02-25T09:27:28.305Z,48.55
2023-02-25T09:29:58.749Z,48.19
2023-02-25T09:32:29.275Z,49.08
2023-02-25T09:35:07.254Z,49.63
2023-02-25T09:37:37.624Z,49.95
2023-02-25T09:40:11.142Z,49.71
2023-02-25T09:42:48.615Z,49.20
2023-02-25T09:45:22.453Z,49.22
2023-02-25T09:47:57.181Z,49.72
2023-02-25T09:50:29.794Z,49.24
2023-02-25T09:53:06.752Z,49.02
2023-02-25T09:55:39.048Z,47.83
2023-02-25T09:58:19.941Z,47.66
2023-02-25T10:01:02.050Z,47.38
2023-02-25T10:03:44.868Z,47.21
2023-02-25T10:06:20.518Z,47.70
2023-02-25T10:08:54.757Z,47.04
2023-02-25T10:11:33.948Z,46.87
2023-02-25T10:14:13.197Z,47.36
2023-02-25T10:16:47.860Z,48.19
2023-02-25T10:19:29.774Z,48.71
2023-02-25T10:22:18.303Z,48.57
2023-02-25T10:24:51.770Z,49.25
2023-02-25T10:27:25.591Z,50.21
2023-02-25T10:30:00.642Z,51.04
2023-02-25T10:32:34.545Z,51.65
2023-02-25T10:35:18.187Z,52.42
2023-02-25T10:37:48.685Z,52.95
2023-02-25T10:40:21.264Z,53.10
2023-02-25T10:42:54.261Z,54.06
2023-02-25T10:45:26.657Z,54.99
2023-02-25T10:48:05.088Z,56.18
2023-02-25T10:50:45.412Z,57.43
2023-02-25T10:53:18.829Z,57.92
2023-02-25T10:55:52.759Z,58.73
2023-02-25T10:58:34.773Z,59.25
2023-02-25T11:01:13.733Z,60.14
2023-02-25T11:03:55.169Z,60.65
2023-02-25T11:06:31.044Z,61.26
2023-02-25T11:09:03.280Z,62.04
2023-02-25T11:11:36.005Z,62.55
2023-02-25T11:14:07.820Z,62.72
2023-02-25T11:16:40.415Z,63.03
2023-02-25T11:19:16.098Z,63.11
2023-02-25T11:21:47.261Z,63.31
2023-02-25T11:24:20.030Z,63.34
2023-02-25T11:26:52.286Z,63.19
2023-02-25T11:29:25.160Z,62.80
2023-02-25T11:31:57.755Z,63.53
2023-02-25T11:34:30.593Z,63.76
2023-02-25T11:40:23.852Z,64.75
2023-02-25T11:43:17.008Z,65.37
2023-02-25T11:46:04.954Z,65.97
2023-02-25T11:48:47.379Z,66.50
2023-02-25T11:51:25.747Z,67.02
2023-02-25T11:54:05.609Z,67.53
2023-02-25T11:56:38.418Z,67.55
2023-02-25T11:59:22.943Z,67.32
2023-02-25T12:02:05.715Z,66.32
2023-02-25T12:04:51.356Z,65.25
2023-02-25T12:07:40.822Z,64.99
2023-02-25T12:10:29.893Z,64.76
2023-02-25T12:13:28.953Z,63.14
2023-02-25T12:16:47.082Z,61.94
2023-02-25T12:19:42.861Z,61.14
2023-02-25T12:22:30.085Z,60.95
2023-02-25T12:25:12.812Z,61.69
2023-02-25T12:27:55.569Z,61.79
2023-02-25T12:30:41.054Z,60.62
2023-02-25T12:33:20.602Z,58.77
2023-02-25T12:36:03.790Z,56.49
2023-02-25T12:39:06.026Z,52.62
2023-02-25T12:41:41.916Z,48.94
2023-02-25T12:44:33.132Z,47.66
2023-02-25T12:47:11.167Z,47.75
2023-02-25T12:50:11.556Z,46.74
2023-02-25T12:52:51.714Z,46.65
2023-02-25T12:55:33.328Z,45.95
2023-02-25T12:58:20.085Z,45.98
2023-02-25T13:01:05.913Z,44.23
2023-02-25T13:03:47.469Z,43.50
2023-02-25T13:06:32.036Z,43.35
2023-02-25T13:09:14.675Z,43.35
2023-02-25T13:14:53.588Z,42.58
2023-02-25T13:17:46.832Z,41.40
2023-02-25T13:21:03.287Z,42.75
2023-02-25T13:24:09.430Z,41.52
2023-02-25T13:27:03.641Z,40.65
2023-02-25T13:29:42.598Z,39.43
2023-02-25T13:32:28.209Z,39.09
2023-02-25T13:35:12.138Z,38.36
2023-02-25T13:37:57.585Z,37.65
2023-02-25T13:40:38.541Z,38.97
2023-02-25T13:43:27.513Z,39.55
2023-02-25T13:46:11.518Z,40.57
2023-02-25T13:49:05.824Z,41.79
2023-02-25T13:51:46.713Z,42.99
2023-02-25T13:54:30.177Z,44.30
2023-02-25T13:57:08.928Z,45.40
2023-02-25T13:59:49.769Z,45.67
2023-02-25T14:02:41.188Z,46.32
2023-02-25T14:05:30.844Z,47.73
2023-02-25T14:08:34.339Z,49.67
2023-02-25T14:11:16.881Z,52.64
2023-02-25T14:14:02.794Z,54.78
2023-02-25T14:16:41.530Z,57.67
2023-02-25T14:19:23.574Z,60.03
2023-02-25T14:22:05.704Z,62.12
2023-02-25T14:24:40.286Z,63.35
2023-02-25T14:27:21.294Z,64.36
2023-02-25T14:30:05.108Z,65.38
2023-02-25T14:32:50.408Z,66.56
2023-02-25T14:35:31.841Z,66.93
2023-02-25T14:38:40.041Z,68.15
2023-02-25T14:41:21.374Z,68.02
2023-02-25T14:43:54.462Z,68.35
2023-02-25T14:46:34.869Z,68.70
2023-02-25T14:49:11.857Z,68.55
2023-02-25T14:52:10.312Z,68.72
2023-02-25T14:55:11.919Z,68.97
2023-02-25T14:58:06.981Z,69.17
2023-02-25T15:01:03.909Z,69.02
2023-02-25T15:03:57.208Z,68.83
2023-02-25T15:06:40.009Z,69.37
2023-02-25T15:09:50.896Z,69.90
2023-02-25T15:12:44.991Z,69.78
2023-02-25T15:15:50.933Z,69.58
2023-02-25T15:18:38.967Z,69.86
2023-02-25T15:21:39.050Z,69.22
2023-02-25T15:24:41.237Z,69.33
2023-02-25T15:27:44.965Z,66.54
2023-02-25T15:30:26.421Z,64.16
2023-02-25T15:33:23.961Z,64.57
2023-02-25T15:36:00.980Z,64.82
2023-02-25T15:44:54.143Z,65.39
2023-02-25T15:47:31.065Z,65.11
2023-02-25T15:50:02.983Z,65.74
2023-02-25T15:52:53.554Z,65.58
2023-02-25T15:55:35.298Z,65.48
2023-02-25T15:58:45.001Z,65.89
2023-02-25T16:01:42.980Z,66.53
2023-02-25T16:04:46.882Z,67.27
2023-02-25T16:07:20.204Z,66.43
2023-02-25T16:09:56.747Z,66.06
2023-02-25T16:12:28.284Z,66.19
2023-02-25T16:14:59.155Z,65.19
2023-02-25T16:17:34.233Z,65.48
2023-02-25T16:20:16.135Z,64.30
2023-02-25T16:22:48.353Z,61.09
2023-02-25T16:25:20.339Z,61.89
2023-02-25T16:27:58.050Z,62.53
2023-02-25T16:30:35.361Z,62.33
2023-02-25T16:33:12.919Z,62.43
2023-02-25T16:35:50.369Z,63.51
2023-02-25T16:38:28.671Z,63.89
2023-02-25T16:41:01.366Z,64.53
2023-02-25T16:43:37.264Z,63.68
2023-02-25T16:46:09.879Z,64.08
2023-02-25T16:48:50.075Z,64.04
2023-02-25T16:51:26.134Z,64.24
2023-02-25T16:53:59.822Z,63.61
2023-02-25T16:56:32.869Z,63.51
2023-02-25T16:59:07.977Z,63.96
2023-02-25T17:01:40.373Z,64.36
2023-02-25T17:04:19.400Z,64.35
2023-02-25T17:07:13.487Z,63.40
2023-02-25T17:09:49.420Z,63.78
2023-02-25T17:12:23.800Z,63.70
2023-02-25T17:14:55.372Z,63.98
2023-02-25T17:17:29.106Z,63.69
2023-02-25T17:20:00.696Z,63.43
2023-02-25T17:22:31.718Z,63.38
2023-02-25T17:25:02.599Z,62.71
2023-02-25T17:27:33.217Z,62.93
2023-02-25T17:30:03.641Z,63.22
2023-02-25T17:32:52.562Z,62.87
2023-02-25T17:35:23.792Z,63.03
2023-02-25T17:37:54.860Z,63.16
2023-02-25T17:40:28.038Z,62.10
2023-02-25T17:43:20.387Z,62.28
2023-02-25T17:45:54.903Z,60.75
2023-02-25T17:48:28.009Z,60.28
2023-02-25T17:51:03.871Z,60.45
2023-02-25T17:53:47.050Z,60.66
2023-02-25T17:56:22.771Z,61.50
2023-02-25T17:58:55.708Z,61.45
2023-02-25T18:01:30.745Z,61.48
2023-02-25T18:04:02.650Z,61.21
2023-02-25T18:06:44.664Z,61.17
2023-02-25T18:09:37.870Z,61.08
2023-02-25T18:12:14.829Z,59.75
2023-02-25T18:14:47.923Z,60.14
2023-02-25T18:17:25.767Z,59.57
2023-02-25T18:19:57.422Z,60.07
2023-02-25T18:22:32.564Z,59.42
2023-02-25T18:25:05.661Z,59.56
2023-02-25T18:27:37.732Z,58.84
2023-02-25T18:30:24.901Z,59.41
2023-02-25T18:32:57.380Z,58.69
2023-02-25T18:35:28.622Z,59.32
2023-02-25T18:38:00.720Z,59.23
2023-02-25T18:40:35.930Z,59.27
2023-02-25T18:43:07.498Z,58.84
2023-02-25T18:45:38.097Z,58.63
2023-02-25T18:48:08.462Z,58.94
2023-02-25T18:50:42.147Z,59.00
2023-02-25T18:53:16.576Z,59.03
2023-02-25T18:55:47.617Z,59.30
2023-02-25T18:58:21.203Z,59.55
2023-02-25T19:00:53.350Z,59.61
2023-02-25T19:03:29.151Z,59.03
2023-02-25T19:05:59.856Z,59.14
2023-02-25T19:08:30.338Z,59.36
2023-02-25T19:11:00.819Z,59.60
2023-02-25T19:13:34.542Z,59.71
2023-02-25T19:16:06.160Z,58.65
2023-02-25T19:18:37.725Z,59.20
2023-02-25T19:21:10.705Z,59.09
2023-02-25T19:23:39.693Z,58.91
2023-02-25T19:26:11.371Z,59.18
2023-02-25T19:28:44.565Z,58.39
2023-02-25T19:31:15.599Z,58.64
2023-02-25T19:33:46.189Z,59.03
2023-02-25T19:36:16.716Z,58.53
2023-02-25T19:38:47.144Z,58.51
2023-02-25T19:41:17.586Z,58.74
2023-02-25T19:43:48.011Z,57.91
2023-02-25T19:46:18.521Z,57.05
2023-02-25T19:48:48.862Z,57.41
2023-02-25T19:51:19.344Z,57.82
2023-02-25T19:53:49.844Z,57.50
2023-02-25T19:56:20.297Z,57.85
2023-02-25T19:58:50.728Z,57.84
2023-02-25T20:01:21.341Z,58.26
2023-02-25T20:03:52.081Z,57.94
2023-02-25T20:06:26.629Z,57.22
2023-02-25T20:08:57.233Z,57.37
2023-02-25T20:11:27.664Z,56.24
2023-02-25T20:13:58.140Z,56.28
2023-02-25T20:16:28.698Z,56.69
2023-02-25T20:18:59.090Z,56.86
2023-02-25T20:21:31.363Z,56.75
2023-02-25T20:24:02.716Z,56.48
2023-02-25T20:26:33.554Z,56.48
2023-02-25T20:29:04.669Z,56.28
2023-02-25T20:31:35.145Z,56.64
2023-02-25T20:34:06.099Z,56.95
2023-02-25T20:36:42.135Z,57.13
2023-02-25T20:39:31.565Z,57.29
2023-02-25T20:42:03.420Z,57.13
2023-02-25T20:44:34.408Z,57.08
2023-02-25T20:47:06.046Z,57.43
2023-02-25T20:49:40.134Z,57.16
2023-02-25T20:52:14.542Z,57.77
2023-02-25T20:54:45.230Z,57.24
2023-02-25T20:57:17.841Z,57.26
2023-02-25T20:59:49.228Z,57.29
2023-02-25T21:02:19.979Z,57.35
2023-02-25T21:04:51.922Z,57.30
2023-02-25T21:07:22.339Z,57.37
2023-02-25T21:09:52.725Z,57.43
2023-02-25T21:12:23.159Z,57.43
2023-02-25T21:14:53.750Z,57.51
2023-02-25T21:17:24.306Z,57.87
2023-02-25T21:19:54.787Z,58.04
2023-02-25T21:22:25.205Z,57.97
2023-02-25T21:24:57.820Z,57.63
2023-02-25T21:27:29.377Z,57.61
2023-02-25T21:30:00.430Z,57.89
2023-02-25T21:32:30.950Z,58.01
2023-02-25T21:35:01.420Z,57.92
2023-02-25T21:37:31.985Z,57.67
2023-02-25T21:40:02.499Z,57.77
2023-02-25T21:42:33.959Z,58.04
2023-02-25T21:45:05.372Z,58.22
2023-02-25T21:47:36.114Z,58.25
2023-02-25T21:50:08.205Z,58.43
2023-02-25T21:52:38.733Z,58.52
2023-02-25T21:55:11.122Z,58.66
2023-02-25T21:57:41.708Z,58.72
2023-02-25T22:00:16.792Z,58.94
2023-02-25T22:02:47.456Z,58.98
2023-02-25T22:05:18.716Z,58.99
2023-02-25T22:07:49.117Z,58.85
2023-02-25T22:10:21.371Z,58.91
2023-02-25T22:12:53.186Z,58.96
2023-02-25T22:15:23.584Z,59.18
2023-02-25T22:17:53.934Z,59.28
2023-02-25T22:20:24.468Z,59.29
2023-02-25T22:22:55.469Z,59.61
2023-02-25T22:25:26.521Z,59.58
2023-02-25T22:27:56.925Z,59.69
2023-02-25T22:30:27.331Z,60.03
2023-02-25T22:32:57.685Z,60.38
2023-02-25T22:35:28.234Z,60.33
2023-02-25T22:37:59.037Z,60.58
2023-02-25T22:40:30.022Z,60.58
2023-02-25T22:43:00.440Z,60.59
2023-02-25T22:45:31.014Z,60.52
2023-02-25T22:48:01.470Z,60.82
2023-02-25T22:50:32.292Z,60.68
2023-02-25T22:53:02.725Z,60.75
2023-02-25T22:55:35.254Z,60.93
2023-02-25T22:58:05.589Z,60.98
2023-02-25T23:00:40.419Z,61.13
2023-02-25T23:03:11.141Z,61.22
2023-02-25T23:05:42.006Z,61.25
2023-02-25T23:08:12.527Z,61.27
2023-02-25T23:10:43.569Z,61.44
2023-02-25T23:13:14.436Z,61.40
2023-02-25T23:15:47.553Z,61.57
2023-02-25T23:18:19.135Z,61.39
2023-02-25T23:20:53.534Z,61.39
2023-02-25T23:23:24.122Z,61.28
2023-02-25T23:25:55.188Z,61.30
2023-02-25T23:28:25.626Z,61.36
2023-02-25T23:30:56.136Z,61.26
2023-02-25T23:33:26.504Z,60.76
2023-02-25T23:35:57.468Z,60.80
2023-02-25T23:38:28.195Z,60.77
2023-02-25T23:41:02.000Z,61.01
2023-02-25T23:43:32.386Z,61.16
2023-02-25T23:46:06.064Z,61.13
2023-02-25T23:48:36.966Z,61.13
2023-02-25T23:51:08.677Z,61.13
2023-02-25T23:53:39.058Z,60.83
2023-02-25T23:56:12.133Z,60.66
2023-02-25T23:58:42.866Z,60.58
